Time;durP1;ratioP1;P1;durP2;ratioP2;P2;SDS_P1;SDS_P2;PMS_P1;PMS_P2;Temp;Humidity;BMP_temperature;BMP_pressure;BME280_temperature;BME280_humidity;BME280_pressure;Samples;Min_cycle;Max_cycle;Signal;HPM_P1;HPM_P2
2023/11/26 00:02:04;;;;;;;1.83;0.77;;;5.20;99.90;;;;;;4955236;29;20023;-73
2023/11/26 00:04:30;;;;;;;2.33;0.67;;;5.20;99.90;;;;;;4955746;29;20034;-73
2023/11/26 00:06:56;;;;;;;4.07;0.80;;;5.20;99.90;;;;;;4955130;29;20027;-73
2023/11/26 00:09:23;;;;;;;2.53;0.60;;;5.20;99.90;;;;;;4955691;29;20042;-73
2023/11/26 00:11:49;;;;;;;2.87;0.53;;;5.20;99.90;;;;;;4955496;29;20554;-73
2023/11/26 00:14:14;;;;;;;1.00;0.43;;;5.20;99.90;;;;;;4956184;28;20020;-73
2023/11/26 00:16:40;;;;;;;1.93;0.60;;;5.30;99.90;;;;;;4955454;29;20049;-73
2023/11/26 00:19:06;;;;;;;1.67;0.70;;;5.20;99.90;;;;;;4954595;29;20058;-73
2023/11/26 00:21:32;;;;;;;1.57;0.80;;;5.20;99.90;;;;;;4954989;29;20046;-73
2023/11/26 00:23:58;;;;;;;7.33;1.30;;;5.20;99.90;;;;;;4956127;28;20110;-73
2023/11/26 00:26:24;;;;;;;2.30;1.00;;;5.10;99.90;;;;;;4956754;28;20038;-73
2023/11/26 00:28:50;;;;;;;2.33;1.20;;;5.10;99.90;;;;;;4955030;29;20034;-73
2023/11/26 00:31:15;;;;;;;5.90;1.47;;;5.10;99.90;;;;;;4956393;29;20027;-73
2023/11/26 00:33:44;;;;;;;8.83;1.80;;;5.10;99.90;;;;;;4956324;29;20062;-73
2023/11/26 00:36:15;;;;;;;6.10;2.20;;;5.10;99.90;;;;;;4954718;28;20494;-73
2023/11/26 00:38:41;;;;;;;6.97;3.40;;;5.10;99.90;;;;;;4956760;28;20094;-73
2023/11/26 00:41:06;;;;;;;5.33;2.30;;;5.00;99.90;;;;;;4955844;28;20023;-75
2023/11/26 00:43:32;;;;;;;10.10;2.60;;;5.00;99.90;;;;;;4955397;29;20031;-73
2023/11/26 00:45:57;;;;;;;6.60;1.90;;;4.90;99.90;;;;;;4954692;29;20023;-73
2023/11/26 00:48:24;;;;;;;7.70;1.20;;;4.80;99.90;;;;;;4956450;29;20094;-73
2023/11/26 00:50:49;;;;;;;1.30;0.90;;;4.90;99.90;;;;;;4955216;29;20070;-73
2023/11/26 00:53:15;;;;;;;2.30;0.97;;;4.90;99.90;;;;;;4954802;29;20067;-73
2023/11/26 00:55:41;;;;;;;1.83;0.70;;;4.90;99.90;;;;;;4955191;29;20093;-73
2023/11/26 00:58:06;;;;;;;11.37;5.27;;;5.00;99.90;;;;;;4955901;28;20032;-73
2023/11/26 01:00:32;;;;;;;2.53;1.10;;;5.00;99.90;;;;;;4955132;29;20038;-73
2023/11/26 01:02:58;;;;;;;2.57;0.70;;;5.00;99.90;;;;;;4955795;28;20487;-73
2023/11/26 01:05:23;;;;;;;2.77;0.67;;;5.00;99.90;;;;;;4956287;29;20023;-73
2023/11/26 01:07:49;;;;;;;2.23;0.70;;;5.00;99.90;;;;;;4954595;29;20174;-73
2023/11/26 01:10:15;;;;;;;2.90;0.80;;;5.00;99.90;;;;;;4955715;29;20037;-73
2023/11/26 01:12:40;;;;;;;2.63;0.50;;;5.00;99.90;;;;;;4956034;28;20494;-73
2023/11/26 01:15:07;;;;;;;3.30;0.80;;;4.90;99.90;;;;;;4954209;29;20428;-74
2023/11/26 01:17:34;;;;;;;1.90;0.63;;;4.90;99.90;;;;;;4970727;28;20380;-73
2023/11/26 01:20:00;;;;;;;0.93;0.30;;;5.00;99.90;;;;;;4954369;29;20023;-73
2023/11/26 01:22:26;;;;;;;1.30;0.40;;;5.00;99.90;;;;;;4960026;28;20142;-73
2023/11/26 01:24:52;;;;;;;0.73;0.50;;;5.00;99.90;;;;;;4919664;29;20388;-73
2023/11/26 01:27:17;;;;;;;1.57;0.60;;;5.00;99.90;;;;;;4936040;29;20031;-73
2023/11/26 01:29:43;;;;;;;0.97;0.90;;;5.00;99.90;;;;;;4919721;29;20039;-73
2023/11/26 01:32:09;;;;;;;0.87;0.37;;;5.00;99.90;;;;;;4935956;29;20036;-73
2023/11/26 01:34:34;;;;;;;2.53;0.70;;;4.90;99.90;;;;;;4919503;29;20102;-73
2023/11/26 01:37:00;;;;;;;1.17;0.40;;;5.00;99.90;;;;;;4918663;29;20032;-73
2023/11/26 01:39:25;;;;;;;1.67;0.73;;;5.00;99.90;;;;;;4919230;29;20037;-73
2023/11/26 01:41:51;;;;;;;4.00;0.93;;;5.00;99.90;;;;;;4919302;29;20060;-73
2023/11/26 01:44:17;;;;;;;4.03;0.87;;;5.00;99.90;;;;;;4935869;29;20040;-72
2023/11/26 01:46:43;;;;;;;1.73;0.60;;;4.90;99.90;;;;;;4919313;29;20023;-72
2023/11/26 01:49:08;;;;;;;1.47;0.53;;;4.90;99.90;;;;;;4917979;29;20094;-73
2023/11/26 01:51:34;;;;;;;1.40;0.60;;;4.90;99.90;;;;;;4919215;29;20044;-73
2023/11/26 01:54:02;;;;;;;0.97;0.63;;;5.00;99.90;;;;;;4918674;29;20504;-73
2023/11/26 01:56:28;;;;;;;2.20;0.50;;;5.00;99.90;;;;;;4919080;29;20386;-73
2023/11/26 01:58:55;;;;;;;2.50;0.50;;;4.90;99.90;;;;;;4919112;29;20036;-73
2023/11/26 02:01:22;;;;;;;2.43;0.70;;;5.00;99.90;;;;;;4936172;29;20032;-73
2023/11/26 02:03:47;;;;;;;2.33;0.50;;;5.00;99.90;;;;;;4935816;29;20377;-73
2023/11/26 02:06:13;;;;;;;1.40;0.50;;;5.00;99.90;;;;;;4935860;29;20030;-73
2023/11/26 02:08:39;;;;;;;1.13;0.40;;;5.00;99.90;;;;;;4918972;29;20036;-73
2023/11/26 02:11:05;;;;;;;7.13;4.20;;;5.00;99.90;;;;;;4918032;29;20430;-73
2023/11/26 02:13:42;;;;;;;10.33;2.40;;;5.00;99.90;;;;;;4918896;29;20035;-73
2023/11/26 02:16:08;;;;;;;1.67;1.00;;;4.90;99.90;;;;;;4918449;29;20521;-73
2023/11/26 02:18:34;;;;;;;1.93;0.70;;;4.90;99.90;;;;;;4918774;29;20039;-73
2023/11/26 02:20:59;;;;;;;3.40;1.40;;;4.90;99.90;;;;;;4918290;29;20461;-73
2023/11/26 02:23:25;;;;;;;1.93;0.43;;;4.90;99.90;;;;;;4935929;29;20055;-73
2023/11/26 02:25:50;;;;;;;2.93;0.50;;;4.90;99.90;;;;;;4918722;29;20036;-73
2023/11/26 02:28:16;;;;;;;2.20;0.60;;;5.00;99.90;;;;;;4918221;29;20390;-73
2023/11/26 02:30:42;;;;;;;3.23;0.50;;;5.00;99.90;;;;;;4918709;29;20028;-73
2023/11/26 02:33:07;;;;;;;2.70;0.50;;;5.00;99.90;;;;;;4918160;29;20034;-73
2023/11/26 02:35:33;;;;;;;1.50;0.40;;;4.90;99.90;;;;;;4935649;29;20118;-73
2023/11/26 02:37:59;;;;;;;5.07;0.83;;;5.00;99.90;;;;;;4917990;29;20040;-75
2023/11/26 02:40:25;;;;;;;2.80;0.60;;;5.00;99.90;;;;;;4918760;29;20385;-73
2023/11/26 02:42:50;;;;;;;0.63;0.50;;;4.90;99.90;;;;;;4918648;29;20032;-73
2023/11/26 02:45:16;;;;;;;1.80;0.50;;;4.90;99.90;;;;;;4918312;29;20497;-73
2023/11/26 02:47:43;;;;;;;1.73;0.50;;;4.90;99.90;;;;;;4918524;29;20028;-73
2023/11/26 02:50:09;;;;;;;1.07;0.40;;;4.90;99.90;;;;;;4917787;29;20027;-74
2023/11/26 02:52:35;;;;;;;2.30;0.60;;;4.90;99.90;;;;;;4935797;29;20082;-73
2023/11/26 02:55:01;;;;;;;2.43;0.87;;;4.90;99.90;;;;;;4918045;29;20055;-74
2023/11/26 02:57:26;;;;;;;2.13;0.70;;;4.90;99.90;;;;;;4918428;29;20512;-73
2023/11/26 02:59:52;;;;;;;1.50;0.50;;;4.90;99.90;;;;;;4936793;29;20067;-73
2023/11/26 03:02:18;;;;;;;1.60;0.50;;;4.80;99.90;;;;;;4938874;29;20437;-73
2023/11/26 03:04:47;;;;;;;1.47;0.40;;;4.90;99.90;;;;;;4921905;29;20083;-73
2023/11/26 03:07:16;;;;;;;0.40;0.40;;;4.80;99.90;;;;;;4938791;29;20038;-73
2023/11/26 03:15:13;;;;;;;0.80;0.50;;;4.90;99.90;;;;;;4938582;29;20389;-73
2023/11/26 03:17:38;;;;;;;1.50;0.50;;;4.90;99.90;;;;;;4922090;29;20380;-73
2023/11/26 03:20:06;;;;;;;1.03;0.50;;;4.90;99.90;;;;;;4921388;29;20020;-74
2023/11/26 03:22:32;;;;;;;1.03;0.67;;;4.90;99.90;;;;;;4939196;29;20473;-73
2023/11/26 03:24:58;;;;;;;0.57;0.40;;;4.90;99.90;;;;;;4921701;29;20028;-73
2023/11/26 03:27:23;;;;;;;0.93;0.43;;;4.80;99.90;;;;;;4938763;29;20042;-73
2023/11/26 03:29:49;;;;;;;0.67;0.40;;;4.80;99.90;;;;;;4921780;29;20122;-73
2023/11/26 03:32:14;;;;;;;3.20;0.60;;;4.80;99.90;;;;;;4921185;29;20032;-73
2023/11/26 03:34:40;;;;;;;3.60;0.60;;;4.80;99.90;;;;;;4921641;29;20024;-73
2023/11/26 03:37:06;;;;;;;1.77;0.70;;;4.80;99.90;;;;;;4938188;29;20450;-73
2023/11/26 03:39:36;;;;;;;1.13;0.50;;;4.70;99.90;;;;;;4938694;29;20036;-73
2023/11/26 03:42:02;;;;;;;0.40;0.30;;;4.70;99.90;;;;;;4938109;29;20030;-79
2023/11/26 03:44:27;;;;;;;1.53;0.40;;;4.70;99.90;;;;;;4938465;29;20107;-73
2023/11/26 03:46:53;;;;;;;1.50;0.60;;;4.60;99.90;;;;;;4938766;29;20035;-73
2023/11/26 03:49:19;;;;;;;1.13;0.40;;;4.70;99.90;;;;;;4938060;29;20035;-73
2023/11/26 03:51:44;;;;;;;1.17;0.40;;;4.60;99.90;;;;;;4938185;29;20473;-73
2023/11/26 03:54:10;;;;;;;0.50;0.30;;;4.60;99.90;;;;;;4920930;29;20405;-73
2023/11/26 03:56:35;;;;;;;1.23;0.33;;;4.60;99.90;;;;;;4938293;29;20028;-73
2023/11/26 03:59:01;;;;;;;0.70;0.27;;;4.60;99.90;;;;;;4921233;29;20040;-72
2023/11/26 04:01:27;;;;;;;0.70;0.40;;;4.60;99.90;;;;;;4920838;29;20023;-73
2023/11/26 04:03:52;;;;;;;1.70;0.37;;;4.60;99.90;;;;;;4921184;29;20032;-72
2023/11/26 04:06:18;;;;;;;1.60;0.43;;;4.70;99.90;;;;;;4920620;29;20465;-73
2023/11/26 04:08:44;;;;;;;0.90;0.20;;;4.70;99.90;;;;;;4921096;29;20034;-73
2023/11/26 04:11:09;;;;;;;0.53;0.30;;;4.60;99.90;;;;;;4919799;29;20023;-73
2023/11/26 04:13:35;;;;;;;1.07;0.43;;;4.60;99.90;;;;;;4921012;29;20028;-72
2023/11/26 04:16:00;;;;;;;0.67;0.30;;;4.60;99.90;;;;;;4937908;29;20030;-72
2023/11/26 04:18:27;;;;;;;2.30;0.30;;;4.60;99.90;;;;;;4920466;29;20453;-72
2023/11/26 04:20:53;;;;;;;0.60;0.40;;;4.50;99.90;;;;;;4937888;29;20028;-72
2023/11/26 04:23:19;;;;;;;1.03;0.20;;;4.50;99.90;;;;;;4951676;29;20051;-72
2023/11/26 04:25:45;;;;;;;0.53;0.33;;;4.50;99.90;;;;;;4955855;29;20034;-72
2023/11/26 04:28:12;;;;;;;2.53;0.50;;;4.40;99.90;;;;;;4955375;29;20035;-73
2023/11/26 04:30:37;;;;;;;1.37;0.50;;;4.50;99.90;;;;;;4955698;29;20476;-73
2023/11/26 04:33:03;;;;;;;1.53;0.40;;;4.50;99.90;;;;;;4957000;28;20027;-73
2023/11/26 04:35:29;;;;;;;0.97;0.30;;;4.50;99.90;;;;;;4954895;29;20031;-73
2023/11/26 04:37:55;;;;;;;1.13;0.40;;;4.50;99.90;;;;;;4955653;29;20194;-73
2023/11/26 04:40:21;;;;;;;1.67;0.50;;;4.50;99.90;;;;;;4955017;29;20074;-73
2023/11/26 04:42:47;;;;;;;3.50;0.47;;;4.40;99.90;;;;;;4955732;29;20028;-72
2023/11/26 04:45:13;;;;;;;0.90;0.50;;;4.40;99.90;;;;;;4954961;29;20023;-73
2023/11/26 04:47:39;;;;;;;0.60;0.40;;;4.50;99.90;;;;;;4955424;29;20455;-74
2023/11/26 04:50:06;;;;;;;1.33;0.50;;;4.40;99.90;;;;;;4955294;29;20035;-72
2023/11/26 04:52:32;;;;;;;3.67;0.40;;;4.50;99.90;;;;;;4955294;29;20396;-73
2023/11/26 04:54:58;;;;;;;1.13;0.53;;;4.50;99.90;;;;;;4956808;28;20027;-72
2023/11/26 04:57:24;;;;;;;1.53;0.50;;;4.50;99.90;;;;;;4954794;29;20027;-73
2023/11/26 04:59:50;;;;;;;2.67;0.50;;;4.50;99.90;;;;;;4956439;29;20036;-73
2023/11/26 05:02:18;;;;;;;0.80;0.53;;;4.50;99.90;;;;;;4954722;29;20035;-73
2023/11/26 05:04:44;;;;;;;1.43;0.50;;;4.50;99.90;;;;;;4955152;29;20421;-72
2023/11/26 05:07:10;;;;;;;2.13;0.60;;;4.50;99.90;;;;;;4954643;29;20027;-72
2023/11/26 05:09:35;;;;;;;1.37;0.60;;;4.50;99.90;;;;;;4956310;29;20506;-73
2023/11/26 05:12:01;;;;;;;2.03;0.70;;;4.50;99.90;;;;;;4954890;29;20034;-72
2023/11/26 05:14:27;;;;;;;3.53;0.63;;;4.50;99.90;;;;;;4954394;29;20031;-73
2023/11/26 05:16:53;;;;;;;1.20;0.50;;;4.50;99.90;;;;;;4970900;28;20034;-72
2023/11/26 05:19:19;;;;;;;1.57;0.53;;;4.50;99.90;;;;;;4970362;28;20039;-72
2023/11/26 05:21:46;;;;;;;0.77;0.33;;;4.50;99.90;;;;;;4954518;29;20145;-73
2023/11/26 05:24:13;;;;;;;1.47;0.43;;;4.50;99.90;;;;;;4954273;28;20032;-75
2023/11/26 05:26:39;;;;;;;3.17;0.50;;;4.40;99.90;;;;;;4954629;29;20031;-72
2023/11/26 05:29:05;;;;;;;3.40;0.50;;;4.50;99.90;;;;;;4954731;29;20471;-73
2023/11/26 05:31:31;;;;;;;3.50;0.80;;;4.50;99.90;;;;;;4955061;28;20110;-72
2023/11/26 05:33:57;;;;;;;1.63;0.93;;;4.50;99.90;;;;;;4954520;29;20027;-72
2023/11/26 05:36:25;;;;;;;1.63;0.60;;;4.50;99.90;;;;;;4954030;29;20059;-72
2023/11/26 05:38:53;;;;;;;2.90;0.70;;;4.40;99.90;;;;;;4954343;29;20065;-72
2023/11/26 05:41:19;;;;;;;2.13;0.80;;;4.40;99.90;;;;;;4954031;29;20050;-75
2023/11/26 05:43:45;;;;;;;0.70;0.50;;;4.40;99.90;;;;;;4955667;29;20460;-74
2023/11/26 05:46:10;;;;;;;2.20;0.67;;;4.40;99.90;;;;;;4955149;28;20033;-73
2023/11/26 05:48:36;;;;;;;1.37;0.50;;;4.40;99.90;;;;;;4955907;29;20110;-73
2023/11/26 05:51:02;;;;;;;0.60;0.40;;;4.50;99.90;;;;;;4955543;29;20108;-74
2023/11/26 05:53:28;;;;;;;0.80;0.50;;;4.50;99.90;;;;;;4953826;29;20066;-73
2023/11/26 05:55:54;;;;;;;2.60;0.60;;;4.40;99.90;;;;;;4955535;29;20062;-73
2023/11/26 05:58:20;;;;;;;1.27;0.50;;;4.50;99.90;;;;;;4953270;29;20119;-73
2023/11/26 06:00:45;;;;;;;0.87;0.50;;;4.40;99.90;;;;;;4955336;28;20031;-73
2023/11/26 06:03:11;;;;;;;1.80;0.60;;;4.50;99.90;;;;;;4953682;29;20510;-73
2023/11/26 06:05:37;;;;;;;2.03;0.60;;;4.40;99.90;;;;;;4954048;29;20039;-72
2023/11/26 06:08:05;;;;;;;0.80;0.40;;;4.50;99.90;;;;;;4955242;29;20031;-73
2023/11/26 06:10:35;;;;;;;0.80;0.50;;;4.40;99.90;;;;;;4969547;28;20027;-73
2023/11/26 06:13:00;;;;;;;1.77;0.87;;;4.40;99.90;;;;;;4954854;28;20468;-73
2023/11/26 06:15:26;;;;;;;1.27;0.60;;;4.40;99.90;;;;;;4954681;29;20086;-73
2023/11/26 06:17:52;;;;;;;1.97;0.43;;;4.40;99.90;;;;;;4953829;29;20069;-73
2023/11/26 06:20:18;;;;;;;0.83;0.60;;;4.50;99.90;;;;;;4954439;29;20090;-72
2023/11/26 06:22:43;;;;;;;2.60;0.67;;;4.50;99.90;;;;;;4953566;29;20404;-73
2023/11/26 06:25:10;;;;;;;0.80;0.60;;;4.40;99.90;;;;;;4953890;29;20026;-72
2023/11/26 06:27:37;;;;;;;3.13;0.90;;;4.50;99.90;;;;;;4969195;28;20035;-73
2023/11/26 06:30:03;;;;;;;2.40;1.00;;;4.50;99.90;;;;;;4954869;28;20031;-73
2023/11/26 06:32:29;;;;;;;2.17;1.07;;;4.40;99.90;;;;;;4954439;28;20023;-73
2023/11/26 06:34:54;;;;;;;2.20;1.07;;;4.50;99.90;;;;;;4969301;28;20427;-73
2023/11/26 06:37:20;;;;;;;1.97;0.70;;;4.50;99.90;;;;;;4954370;29;20034;-73
2023/11/26 06:39:46;;;;;;;1.87;0.67;;;4.50;99.90;;;;;;4953471;29;20047;-73
2023/11/26 06:42:12;;;;;;;0.93;0.70;;;4.50;99.90;;;;;;4953498;29;20067;-73
2023/11/26 06:44:37;;;;;;;2.63;1.00;;;4.60;99.90;;;;;;4953473;29;20062;-73
2023/11/26 06:47:03;;;;;;;2.00;0.90;;;4.60;99.90;;;;;;4953332;29;20023;-73
2023/11/26 06:49:29;;;;;;;1.93;0.70;;;4.50;99.90;;;;;;4954279;29;20035;-73
2023/11/26 06:51:55;;;;;;;1.93;0.97;;;4.60;99.90;;;;;;4953098;29;20023;-72
2023/11/26 06:54:22;;;;;;;2.13;1.10;;;4.60;99.90;;;;;;4952894;29;20058;-73
2023/11/26 06:56:47;;;;;;;2.13;1.00;;;4.50;99.90;;;;;;4953415;29;20122;-73
2023/11/26 06:59:13;;;;;;;1.97;0.87;;;4.60;99.90;;;;;;4954300;29;20509;-79
2023/11/26 07:01:39;;;;;;;2.40;0.97;;;4.60;99.90;;;;;;4953442;29;20036;-73
2023/11/26 07:04:05;;;;;;;1.90;1.13;;;4.60;99.90;;;;;;4953481;29;20114;-73
2023/11/26 07:06:31;;;;;;;4.53;1.50;;;4.60;99.90;;;;;;4952867;29;20027;-73
2023/11/26 07:08:56;;;;;;;2.33;1.40;;;4.60;99.90;;;;;;4954510;29;20034;-73
2023/11/26 07:11:23;;;;;;;4.13;1.60;;;4.60;99.90;;;;;;4952799;29;20035;-73
2023/11/26 07:13:51;;;;;;;5.93;2.20;;;4.60;99.90;;;;;;4953180;29;20060;-73
2023/11/26 07:16:20;;;;;;;4.77;2.30;;;4.60;99.90;;;;;;4953934;28;20028;-73
2023/11/26 07:18:47;;;;;;;5.40;2.20;;;4.60;99.90;;;;;;4953200;29;20441;-72
2023/11/26 07:21:14;;;;;;;4.97;2.23;;;4.60;99.90;;;;;;4952343;29;20425;-73
2023/11/26 07:23:40;;;;;;;5.20;1.70;;;4.60;99.90;;;;;;4918168;29;20036;-72
2023/11/26 07:26:19;;;;;;;3.33;1.90;;;4.70;99.90;;;;;;4918131;29;20072;-73
2023/11/26 07:28:50;;;;;;;3.30;1.83;;;4.70;99.90;;;;;;4918374;29;20436;-73
2023/11/26 07:31:17;;;;;;;2.77;1.40;;;4.70;99.90;;;;;;4934892;29;20074;-78
2023/11/26 07:33:43;;;;;;;4.97;1.87;;;4.80;99.90;;;;;;4918294;29;20027;-72
2023/11/26 07:36:23;;;;;;;5.30;1.73;;;4.80;99.90;;;;;;4918271;29;20524;-73
2023/11/26 07:38:58;;;;;;;6.37;2.20;;;4.80;99.90;;;;;;4935102;29;20118;-73
2023/11/26 07:41:24;;;;;;;4.10;1.93;;;4.80;99.90;;;;;;4917670;29;20079;-73
2023/11/26 07:43:51;;;;;;;4.87;1.97;;;4.80;99.90;;;;;;4918206;29;20127;-73
2023/11/26 07:46:18;;;;;;;3.63;1.80;;;4.90;99.90;;;;;;4917843;29;20516;-74
2023/11/26 07:48:46;;;;;;;6.13;2.10;;;4.90;99.90;;;;;;4938846;29;20038;-73
2023/11/26 07:51:12;;;;;;;9.03;2.20;;;4.90;99.90;;;;;;4921327;29;20039;-73
2023/11/26 07:53:39;;;;;;;3.57;2.10;;;4.90;99.90;;;;;;4920868;29;20389;-73
2023/11/26 07:56:05;;;;;;;4.33;2.10;;;4.90;99.90;;;;;;4938515;29;20039;-73
2023/11/26 07:58:34;;;;;;;6.13;2.10;;;4.90;99.90;;;;;;4920817;29;20130;-73
2023/11/26 08:01:03;;;;;;;7.70;2.50;;;4.90;99.90;;;;;;4920943;29;20075;-73
2023/11/26 08:03:33;;;;;;;5.93;2.50;;;4.90;99.90;;;;;;4937757;29;20023;-72
2023/11/26 08:06:02;;;;;;;7.47;2.67;;;4.90;99.90;;;;;;4938239;29;20031;-73
2023/11/26 08:08:35;;;;;;;6.67;2.57;;;5.00;99.90;;;;;;4920661;29;20059;-73
2023/11/26 08:11:01;;;;;;;;;;;5.00;99.90;;;;;;4921697;29;20031;-73
2023/11/26 08:13:28;;;;;;;4.70;2.20;;;5.00;99.90;;;;;;4920687;29;19913;-73
2023/11/26 08:15:56;;;;;;;7.17;2.37;;;5.00;99.90;;;;;;4920986;29;20483;-73
2023/11/26 08:18:23;;;;;;;6.33;2.23;;;5.00;99.90;;;;;;4920343;29;20477;-73
2023/11/26 08:20:49;;;;;;;5.17;2.43;;;5.10;99.90;;;;;;4920819;29;20038;-72
2023/11/26 08:23:15;;;;;;;5.43;2.60;;;5.10;99.90;;;;;;4951006;29;20059;-73
2023/11/26 08:25:41;;;;;;;6.37;2.73;;;5.20;99.90;;;;;;4955320;29;20027;-73
2023/11/26 08:28:07;;;;;;;5.33;2.30;;;5.20;99.90;;;;;;4955858;29;20035;-73
2023/11/26 08:30:42;;;;;;;7.93;2.80;;;5.20;99.90;;;;;;4955248;29;20031;-73
2023/11/26 08:33:10;;;;;;;7.37;2.67;;;5.20;99.90;;;;;;4957079;28;20519;-73
2023/11/26 08:35:37;;;;;;;8.30;3.30;;;5.20;99.90;;;;;;4956433;28;20063;-73
2023/11/26 08:38:05;;;;;;;6.53;2.50;;;5.20;99.90;;;;;;4956746;28;20045;-72
2023/11/26 08:40:33;;;;;;;5.60;2.80;;;5.20;99.90;;;;;;4955090;29;20032;-73
2023/11/26 08:43:04;;;;;;;7.70;2.80;;;5.30;99.90;;;;;;4955482;29;20027;-73
2023/11/26 08:45:30;;;;;;;5.77;2.67;;;5.30;99.90;;;;;;4954922;29;20468;-73
2023/11/26 08:47:56;;;;;;;9.17;2.80;;;5.40;99.90;;;;;;4955535;29;20486;-72
2023/11/26 08:50:23;;;;;;;5.30;2.77;;;5.40;99.90;;;;;;4954792;29;20524;-73
2023/11/26 08:52:52;;;;;;;4.60;2.40;;;5.50;99.90;;;;;;4955438;29;20126;-72
2023/11/26 08:55:18;;;;;;;7.70;3.17;;;5.50;99.90;;;;;;4955336;29;20031;-73
2023/11/26 08:57:44;;;;;;;7.87;3.13;;;5.50;99.90;;;;;;4955705;28;20031;-73
2023/11/26 09:00:10;;;;;;;9.77;2.83;;;5.50;99.90;;;;;;4956494;29;20031;-73
2023/11/26 09:02:40;;;;;;;9.20;3.03;;;5.50;99.90;;;;;;4954641;29;20130;-73
2023/11/26 09:05:08;;;;;;;7.67;2.90;;;5.50;99.90;;;;;;4971247;28;20031;-73
2023/11/26 09:07:41;;;;;;;7.13;2.80;;;5.50;99.90;;;;;;4956171;29;20114;-73
2023/11/26 09:10:08;;;;;;;8.40;3.10;;;5.40;99.90;;;;;;4955204;29;20443;-72
2023/11/26 09:12:34;;;;;;;7.00;3.60;;;5.50;99.90;;;;;;4954472;29;20384;-73
2023/11/26 09:14:59;;;;;;;6.00;3.00;;;5.50;99.90;;;;;;4955062;29;20031;-73
2023/11/26 09:17:26;;;;;;;7.90;3.00;;;5.60;99.90;;;;;;4955575;29;20031;-73
2023/11/26 09:19:52;;;;;;;11.37;3.27;;;5.60;99.90;;;;;;4955704;29;20443;-72
2023/11/26 09:22:18;;;;;;;13.83;3.23;;;5.70;99.90;;;;;;4946874;28;20052;-73
2023/11/26 09:24:43;;;;;;;11.23;3.20;;;5.70;99.90;;;;;;4919247;29;20477;-73
2023/11/26 09:27:09;;;;;;;8.63;3.20;;;5.70;99.90;;;;;;4919675;29;20086;-73
2023/11/26 09:29:34;;;;;;;6.53;2.57;;;5.70;99.90;;;;;;4919093;29;20035;-73
2023/11/26 09:32:00;;;;;;;6.60;3.60;;;5.70;99.90;;;;;;4924256;29;20036;-73
2023/11/26 09:34:26;;;;;;;7.30;2.73;;;5.70;99.90;;;;;;4926378;29;20032;-73
2023/11/26 09:36:52;;;;;;;8.20;2.93;;;5.60;99.90;;;;;;4928469;29;20031;-73
2023/11/26 09:39:19;;;;;;;10.00;3.70;;;5.60;99.90;;;;;;4917948;29;20039;-73
2023/11/26 09:41:44;;;;;;;9.97;3.40;;;5.60;99.90;;;;;;4918185;29;20058;-74
2023/11/26 09:44:10;;;;;;;10.07;3.57;;;5.70;99.90;;;;;;4934314;29;20067;-73
2023/11/26 09:46:36;;;;;;;9.90;3.33;;;5.70;99.90;;;;;;4933703;29;20123;-77
2023/11/26 09:49:02;;;;;;;5.97;2.90;;;5.80;99.90;;;;;;4926492;29;20027;-74
2023/11/26 09:51:31;;;;;;;11.67;3.00;;;5.90;99.90;;;;;;4926292;29;20393;-73
2023/11/26 09:53:57;;;;;;;5.90;2.63;;;6.00;99.90;;;;;;4917771;29;20477;-73
2023/11/26 09:56:24;;;;;;;7.17;2.93;;;6.10;99.90;;;;;;4934526;29;20058;-73
2023/11/26 09:58:49;;;;;;;7.23;2.60;;;6.20;99.90;;;;;;4934687;29;20065;-74
2023/11/26 10:01:15;;;;;;;8.50;2.97;;;6.20;99.90;;;;;;4918682;29;20481;-73
2023/11/26 10:04:00;;;;;;;7.63;3.27;;;6.30;99.90;;;;;;4924339;29;20028;-75
2023/11/26 10:06:27;;;;;;;8.03;2.90;;;6.30;99.90;;;;;;4917336;29;20405;-73
2023/11/26 10:08:52;;;;;;;7.83;2.77;;;6.30;99.90;;;;;;4933683;29;20042;-73
2023/11/26 10:11:27;;;;;;;6.13;2.67;;;6.40;99.90;;;;;;4917616;29;20372;-73
2023/11/26 10:13:53;;;;;;;8.53;2.60;;;6.50;99.90;;;;;;4924802;29;20381;-73
2023/11/26 10:16:34;;;;;;;9.67;2.80;;;6.50;99.90;;;;;;4934761;29;20056;-73
2023/11/26 10:19:03;;;;;;;7.50;2.77;;;6.50;99.90;;;;;;4934481;29;20036;-73
2023/11/26 10:21:30;;;;;;;7.70;3.43;;;6.50;99.90;;;;;;4923465;29;20485;-73
2023/11/26 10:23:59;;;;;;;7.30;2.33;;;6.50;99.90;;;;;;4916651;29;20378;-74
2023/11/26 10:26:29;;;;;;;6.33;2.40;;;6.50;99.90;;;;;;4923783;29;20377;-77
2023/11/26 10:29:08;;;;;;;7.53;2.63;;;6.50;99.90;;;;;;4910307;29;20038;-73
2023/11/26 10:31:39;;;;;;;7.20;2.47;;;6.60;99.90;;;;;;4915991;29;20028;-72
2023/11/26 10:34:13;;;;;;;7.50;3.20;;;6.60;99.90;;;;;;4916118;29;20185;-72
2023/11/26 10:36:39;;;;;;;23.03;10.20;;;6.70;99.90;;;;;;4933326;29;20028;-72
2023/11/26 10:39:05;;;;;;;7.50;3.07;;;6.70;99.90;;;;;;4916490;29;20488;-74
2023/11/26 10:41:35;;;;;;;7.97;2.83;;;6.80;99.90;;;;;;4915876;29;20034;-73
2023/11/26 10:44:01;;;;;;;5.23;2.63;;;6.80;99.90;;;;;;4916197;29;20043;-72
2023/11/26 10:46:26;;;;;;;7.77;2.53;;;6.80;99.90;;;;;;4914632;29;20446;-73
2023/11/26 10:49:01;;;;;;;5.37;2.40;;;6.80;99.90;;;;;;4916538;29;20059;-72
2023/11/26 10:51:30;;;;;;;5.70;2.70;;;6.80;99.90;;;;;;4932441;29;20036;-73
2023/11/26 10:54:10;;;;;;;5.37;2.60;;;6.90;99.90;;;;;;4916476;29;20221;-73
2023/11/26 10:56:40;;;;;;;7.37;2.27;;;7.10;99.90;;;;;;4916100;29;20055;-73
2023/11/26 10:59:16;;;;;;;7.83;2.53;;;7.10;99.90;;;;;;4932968;29;20036;-73
2023/11/26 11:01:44;;;;;;;6.88;2.63;;;7.10;99.90;;;;;;4915161;29;20055;-73
2023/11/26 11:04:14;;;;;;;6.90;3.58;;;7.10;99.90;;;;;;4916309;29;20469;-73
2023/11/26 11:06:40;;;;;;;4.55;2.40;;;7.00;99.90;;;;;;4933003;29;20024;-73
2023/11/26 11:09:12;;;;;;;9.15;2.85;;;7.00;99.90;;;;;;4933739;29;20032;-74
2023/11/26 11:11:55;;;;;;;5.70;1.90;;;7.10;99.90;;;;;;4932297;29;20082;-73
2023/11/26 11:14:23;;;;;;;7.70;2.40;;;7.10;99.90;;;;;;4933564;29;20146;-73
2023/11/26 11:16:49;;;;;;;11.57;3.05;;;7.20;99.90;;;;;;4932552;29;20051;-75
2023/11/26 11:19:49;;;;;;;10.75;3.90;;;7.20;99.90;;;;;;4915989;29;20523;-74
2023/11/26 11:22:15;;;;;;;5.33;2.73;;;7.20;99.90;;;;;;4937059;29;20100;-74
2023/11/26 11:24:40;;;;;;;4.65;2.40;;;7.10;99.90;;;;;;4919207;29;20397;-75
2023/11/26 11:27:07;;;;;;;7.68;2.75;;;7.10;99.90;;;;;;4919863;29;20098;-76
2023/11/26 11:29:33;;;;;;;6.35;2.65;;;7.10;99.90;;;;;;4918413;29;20481;-73
2023/11/26 11:32:01;;;;;;;6.40;2.47;;;7.20;99.90;;;;;;4919634;29;20118;-73
2023/11/26 11:34:28;;;;;;;7.90;2.90;;;7.10;99.90;;;;;;4919554;29;20117;-76
2023/11/26 11:36:58;;;;;;;7.23;2.53;;;7.10;99.90;;;;;;4919801;29;20149;-73
2023/11/26 11:39:41;;;;;;;5.70;2.30;;;7.10;99.90;;;;;;4919566;29;20118;-73
2023/11/26 11:42:09;;;;;;;5.23;2.30;;;7.10;99.90;;;;;;4919420;29;20050;-75
2023/11/26 11:44:42;;;;;;;5.32;2.50;;;7.20;99.90;;;;;;4936457;29;20092;-73
2023/11/26 11:47:31;;;;;;;8.95;2.55;;;7.20;99.90;;;;;;4936367;29;20039;-73
2023/11/26 11:50:00;;;;;;;7.27;2.30;;;7.10;99.90;;;;;;4918724;29;20035;-74
2023/11/26 11:52:26;;;;;;;7.88;2.65;;;7.20;99.90;;;;;;4919411;29;20043;-74
2023/11/26 11:54:54;;;;;;;4.57;2.30;;;7.20;99.90;;;;;;4919001;29;20466;-78
2023/11/26 11:57:23;;;;;;;7.47;2.60;;;7.30;99.90;;;;;;4926534;29;20051;-73
2023/11/26 11:59:50;;;;;;;5.13;2.63;;;7.30;99.90;;;;;;4935682;29;20050;-72
2023/11/26 12:02:16;;;;;;;4.13;2.20;;;7.40;99.90;;;;;;4919159;29;20488;-72
2023/11/26 12:04:50;;;;;;;7.63;2.20;;;7.30;99.90;;;;;;4935433;29;20040;-73
2023/11/26 12:07:17;;;;;;;6.50;2.20;;;7.30;99.90;;;;;;4935588;29;20354;-73
2023/11/26 12:09:43;;;;;;;4.45;2.30;;;7.30;99.90;;;;;;4917658;29;20027;-73
2023/11/26 12:12:09;;;;;;;7.88;2.28;;;7.10;99.90;;;;;;4936578;29;20028;-73
2023/11/26 12:14:36;;;;;;;4.85;2.00;;;7.20;99.90;;;;;;4926574;29;20039;-73
2023/11/26 12:17:07;;;;;;;6.13;2.00;;;7.20;99.90;;;;;;4935663;29;20070;-73
2023/11/26 12:19:37;;;;;;;6.63;2.20;;;7.20;99.90;;;;;;4917965;29;20043;-73
2023/11/26 12:22:04;;;;;;;6.45;2.40;;;7.20;99.90;;;;;;4935481;29;20470;-73
2023/11/26 12:24:30;;;;;;;4.82;2.38;;;7.20;99.90;;;;;;4918200;29;20036;-73
2023/11/26 12:26:56;;;;;;;6.93;2.90;;;7.20;99.90;;;;;;4918681;29;20028;-73
2023/11/26 12:29:26;;;;;;;6.13;2.20;;;7.20;99.90;;;;;;4918419;29;20042;-75
2023/11/26 12:32:05;;;;;;;4.28;2.20;;;7.10;99.90;;;;;;4917739;29;20583;-74
2023/11/26 12:34:42;;;;;;;4.63;1.83;;;7.10;99.90;;;;;;4917724;29;20032;-73
2023/11/26 12:37:10;;;;;;;6.38;2.03;;;7.10;99.90;;;;;;4917570;29;20381;-74
2023/11/26 12:39:38;;;;;;;7.25;1.85;;;7.10;99.90;;;;;;4918269;29;20031;-73
2023/11/26 12:42:04;;;;;;;6.28;2.10;;;7.10;99.90;;;;;;4935860;29;20023;-73
2023/11/26 12:44:33;;;;;;;7.97;2.40;;;7.00;99.90;;;;;;4918158;29;20182;-73
2023/11/26 12:47:06;;;;;;;7.05;2.45;;;7.00;99.90;;;;;;4935404;29;20023;-73
2023/11/26 12:49:31;;;;;;;3.97;2.33;;;7.00;99.90;;;;;;4917515;29;20054;-76
2023/11/26 12:51:57;;;;;;;5.28;3.08;;;7.00;99.90;;;;;;4918216;29;20042;-73
2023/11/26 12:54:24;;;;;;;6.50;2.40;;;6.90;99.90;;;;;;4926614;29;20035;-73
2023/11/26 12:56:51;;;;;;;5.40;2.55;;;6.90;99.90;;;;;;4917925;29;20035;-75
2023/11/26 12:59:17;;;;;;;5.00;2.50;;;6.80;99.90;;;;;;4917644;29;20404;-73
2023/11/26 13:01:43;;;;;;;7.93;2.10;;;6.80;99.90;;;;;;4917296;29;20024;-73
2023/11/26 13:04:08;;;;;;;6.95;2.28;;;6.80;99.90;;;;;;4935454;29;20035;-73